createdAt,value
2024-03-03T00:01:10.185Z,70.28
2024-03-03T00:03:37.840Z,69.63
2024-03-03T00:06:09.118Z,71.10
2024-03-03T00:08:37.470Z,69.96
2024-03-03T00:11:06.381Z,70.54
2024-03-03T00:13:35.162Z,71.70
2024-03-03T00:16:07.930Z,71.94
2024-03-03T00:18:40.053Z,70.50
2024-03-03T00:21:15.234Z,70.56
2024-03-03T00:23:43.387Z,69.58
2024-03-03T00:26:10.838Z,69.33
2024-03-03T00:28:38.255Z,70.72
2024-03-03T00:31:05.811Z,69.89
2024-03-03T00:33:33.318Z,67.90
2024-03-03T00:36:00.741Z,68.45
2024-03-03T00:38:28.205Z,70.04
2024-03-03T00:40:55.801Z,67.75
2024-03-03T00:43:23.593Z,68.48
2024-03-03T00:45:51.095Z,65.28
2024-03-03T00:48:18.508Z,66.34
2024-03-03T00:50:45.879Z,69.38
2024-03-03T00:53:13.341Z,67.72
2024-03-03T00:55:47.454Z,69.50
2024-03-03T00:58:16.184Z,70.42
2024-03-03T01:00:44.983Z,70.70
2024-03-03T01:03:12.423Z,71.32
2024-03-03T01:05:39.811Z,71.72
2024-03-03T01:08:07.634Z,71.81
2024-03-03T01:10:35.067Z,72.82
2024-03-03T01:13:02.622Z,69.42
2024-03-03T01:15:30.138Z,71.22
2024-03-03T01:17:57.449Z,71.05
2024-03-03T01:20:26.346Z,71.23
2024-03-03T01:22:53.798Z,68.35
2024-03-03T01:25:21.332Z,67.03
2024-03-03T01:27:48.836Z,70.91
2024-03-03T01:30:16.281Z,68.88
2024-03-03T01:32:43.756Z,67.94
2024-03-03T01:35:11.314Z,70.38
2024-03-03T01:37:38.704Z,71.42
2024-03-03T01:40:08.085Z,70.61
2024-03-03T01:42:35.730Z,72.22
2024-03-03T01:45:04.071Z,72.51
2024-03-03T01:47:32.608Z,70.97
2024-03-03T01:50:00.410Z,72.43
2024-03-03T01:52:30.063Z,74.16
2024-03-03T01:54:58.795Z,72.47
2024-03-03T01:57:26.304Z,73.27
2024-03-03T01:59:56.089Z,73.21
2024-03-03T02:02:24.489Z,72.56
2024-03-03T02:04:52.425Z,72.76
2024-03-03T02:07:22.402Z,71.12
2024-03-03T02:09:50.325Z,70.44
2024-03-03T02:12:19.043Z,69.81
2024-03-03T02:14:46.539Z,71.13
2024-03-03T02:17:13.937Z,71.02
2024-03-03T02:19:41.852Z,67.66
2024-03-03T02:22:09.311Z,68.52
2024-03-03T02:24:36.780Z,69.46
2024-03-03T02:27:05.958Z,69.42
2024-03-03T02:29:33.490Z,68.68
2024-03-03T02:32:00.875Z,66.70
2024-03-03T02:34:29.953Z,68.07
2024-03-03T02:36:57.430Z,66.18
2024-03-03T02:39:24.893Z,65.04
2024-03-03T02:41:52.341Z,68.82
2024-03-03T02:44:19.756Z,68.81
2024-03-03T02:46:49.395Z,69.83
2024-03-03T02:49:16.872Z,69.58
2024-03-03T02:51:45.305Z,69.77
2024-03-03T02:54:14.197Z,69.88
2024-03-03T02:56:41.583Z,70.04
2024-03-03T02:59:08.964Z,68.43
2024-03-03T03:01:36.485Z,65.70
2024-03-03T03:04:04.756Z,66.29
2024-03-03T03:06:32.203Z,67.72
2024-03-03T03:08:59.554Z,71.10
2024-03-03T03:11:27.015Z,71.46
2024-03-03T03:13:54.709Z,70.98
2024-03-03T03:16:22.196Z,69.28
2024-03-03T03:18:49.603Z,66.55
2024-03-03T03:21:17.082Z,69.04
2024-03-03T03:23:44.489Z,69.89
2024-03-03T03:26:12.174Z,69.88
2024-03-03T03:28:43.113Z,69.80
2024-03-03T03:31:10.593Z,68.60
2024-03-03T03:33:38.022Z,69.74
2024-03-03T03:36:12.323Z,68.19
2024-03-03T03:38:39.926Z,69.75
2024-03-03T03:41:07.388Z,70.76
2024-03-03T03:43:34.876Z,70.55
2024-03-03T03:46:02.424Z,71.42
2024-03-03T03:48:29.936Z,69.41
2024-03-03T03:50:57.470Z,71.62
2024-03-03T03:53:24.778Z,69.80
2024-03-03T03:55:52.124Z,70.82
2024-03-03T03:58:19.585Z,71.93
2024-03-03T04:00:47.187Z,72.57
2024-03-03T04:03:14.646Z,72.33
2024-03-03T04:05:42.072Z,70.61
2024-03-03T04:08:09.526Z,71.51
2024-03-03T04:10:36.919Z,72.67
2024-03-03T04:13:04.949Z,71.03
2024-03-03T04:15:32.724Z,72.48
2024-03-03T04:18:00.228Z,70.82
2024-03-03T04:20:27.769Z,70.33
2024-03-03T04:22:55.151Z,71.05
2024-03-03T04:25:22.643Z,70.96
2024-03-03T04:27:50.131Z,68.23
2024-03-03T04:30:18.132Z,68.52
2024-03-03T04:32:45.655Z,68.17
2024-03-03T04:35:13.109Z,69.42
2024-03-03T04:37:40.805Z,70.13
2024-03-03T04:40:09.855Z,68.95
2024-03-03T04:42:37.162Z,68.74
2024-03-03T04:45:07.894Z,68.07
2024-03-03T04:47:36.152Z,71.64
2024-03-03T04:50:03.884Z,71.36
2024-03-03T04:52:31.313Z,73.17
2024-03-03T04:54:58.688Z,73.23
2024-03-03T04:57:26.123Z,74.44
2024-03-03T04:59:53.685Z,72.97
2024-03-03T05:02:21.125Z,73.87
2024-03-03T05:04:48.544Z,73.26
2024-03-03T05:07:17.221Z,72.22
2024-03-03T05:09:44.743Z,73.27
2024-03-03T05:12:12.173Z,72.05
2024-03-03T05:14:39.495Z,71.95
2024-03-03T05:17:06.816Z,71.37
2024-03-03T05:19:34.205Z,71.72
2024-03-03T05:22:01.623Z,71.39
2024-03-03T05:24:29.140Z,72.75
2024-03-03T05:26:56.455Z,73.56
2024-03-03T05:29:25.370Z,73.80
2024-03-03T05:31:52.769Z,73.88
2024-03-03T05:34:20.245Z,70.76
2024-03-03T05:36:47.974Z,70.75
2024-03-03T05:39:19.746Z,71.85
2024-03-03T05:41:47.088Z,71.61
2024-03-03T05:44:14.784Z,71.12
2024-03-03T05:46:42.179Z,72.24
2024-03-03T05:49:09.705Z,73.84
2024-03-03T05:51:37.879Z,73.01
2024-03-03T05:54:06.159Z,73.54
2024-03-03T05:56:36.411Z,74.80
2024-03-03T05:59:05.485Z,73.02
2024-03-03T06:01:33.323Z,70.81
2024-03-03T06:04:01.012Z,73.70
2024-03-03T06:06:28.835Z,73.90
2024-03-03T06:08:57.310Z,72.82
2024-03-03T06:11:24.783Z,72.38
2024-03-03T06:13:53.267Z,74.84
2024-03-03T06:16:20.645Z,72.94
2024-03-03T06:18:48.325Z,71.61
2024-03-03T06:21:16.916Z,72.02
2024-03-03T06:23:44.230Z,73.36
2024-03-03T06:26:16.422Z,72.07
2024-03-03T06:28:46.386Z,72.44
2024-03-03T06:31:14.452Z,72.57
2024-03-03T06:33:41.904Z,71.37
2024-03-03T06:36:18.523Z,72.03
2024-03-03T06:38:46.536Z,71.74
2024-03-03T06:41:15.990Z,72.87
2024-03-03T06:43:44.667Z,71.10
2024-03-03T06:46:13.158Z,69.77
2024-03-03T06:48:41.272Z,67.89
2024-03-03T06:51:09.129Z,70.09
2024-03-03T06:53:40.193Z,70.09
2024-03-03T06:56:16.654Z,71.75
2024-03-03T06:58:47.646Z,70.74
2024-03-03T07:01:16.655Z,72.82
2024-03-03T07:03:56.443Z,73.29
2024-03-03T07:06:24.190Z,73.47
2024-03-03T07:08:51.673Z,74.82
2024-03-03T07:11:19.182Z,73.69
2024-03-03T07:13:46.692Z,73.35
2024-03-03T07:16:14.017Z,71.30
2024-03-03T07:18:41.630Z,72.75
2024-03-03T07:21:09.330Z,72.09
2024-03-03T07:23:36.817Z,71.34
2024-03-03T07:26:04.295Z,71.13
2024-03-03T07:28:31.690Z,71.30
2024-03-03T07:30:59.064Z,70.29
2024-03-03T07:33:26.426Z,71.20
2024-03-03T07:35:53.791Z,72.59
2024-03-03T07:38:21.287Z,73.89
2024-03-03T07:40:48.680Z,72.21
2024-03-03T07:43:16.446Z,71.65
2024-03-03T07:45:43.930Z,72.52
2024-03-03T07:48:11.404Z,72.19
2024-03-03T07:50:38.848Z,72.65
2024-03-03T07:53:06.982Z,72.21
2024-03-03T07:55:34.422Z,72.69
2024-03-03T07:58:01.890Z,72.22
2024-03-03T08:00:35.144Z,72.51
2024-03-03T08:03:07.308Z,72.36
2024-03-03T08:05:35.392Z,74.58
2024-03-03T08:08:05.858Z,74.56
2024-03-03T08:10:34.114Z,73.82
2024-03-03T08:13:01.989Z,75.23
2024-03-03T08:15:29.872Z,73.97
2024-03-03T08:18:01.639Z,75.50
2024-03-03T08:20:29.971Z,74.71
2024-03-03T08:22:57.491Z,76.27
2024-03-03T08:25:26.081Z,75.09
2024-03-03T08:27:58.362Z,73.27
2024-03-03T08:30:26.287Z,74.60
2024-03-03T08:32:54.681Z,73.02
2024-03-03T08:35:22.124Z,74.54
2024-03-03T08:37:49.527Z,72.78
2024-03-03T08:40:20.543Z,71.98
2024-03-03T08:42:48.012Z,70.90
2024-03-03T08:45:15.474Z,71.92
2024-03-03T08:47:43.558Z,69.80
2024-03-03T08:50:11.775Z,70.45
2024-03-03T08:52:40.497Z,70.16
2024-03-03T08:55:08.342Z,70.25
2024-03-03T08:57:35.789Z,69.60
2024-03-03T09:00:03.817Z,70.46
2024-03-03T09:02:31.223Z,69.55
2024-03-03T09:05:08.869Z,69.48
2024-03-03T09:07:37.686Z,67.69
2024-03-03T09:10:06.434Z,67.76
2024-03-03T09:12:34.337Z,67.51
2024-03-03T09:15:02.030Z,68.99
2024-03-03T09:17:29.476Z,68.63
2024-03-03T09:19:56.848Z,70.43
2024-03-03T09:22:25.974Z,68.70
2024-03-03T09:24:53.753Z,67.98
2024-03-03T09:27:25.443Z,67.28
2024-03-03T09:29:54.002Z,69.07
2024-03-03T09:32:21.791Z,67.54
2024-03-03T09:34:49.103Z,69.57
2024-03-03T09:37:16.607Z,66.40
2024-03-03T09:39:44.574Z,66.47
2024-03-03T09:42:12.500Z,67.47
2024-03-03T09:44:45.389Z,64.14
2024-03-03T09:47:14.653Z,64.27
2024-03-03T09:49:46.713Z,64.36
2024-03-03T09:52:15.439Z,62.54
2024-03-03T09:54:43.837Z,64.69
2024-03-03T09:57:15.257Z,66.47
2024-03-03T09:59:43.090Z,65.89
2024-03-03T10:02:19.130Z,63.75
2024-03-03T10:04:49.879Z,64.23
2024-03-03T10:07:24.632Z,59.93
2024-03-03T10:10:05.273Z,60.79
2024-03-03T10:12:35.130Z,62.69
2024-03-03T10:15:06.418Z,60.10
2024-03-03T10:17:33.886Z,58.68
2024-03-03T10:20:10.133Z,57.69
2024-03-03T10:22:39.443Z,60.20
2024-03-03T10:25:19.534Z,59.14
2024-03-03T10:27:49.860Z,61.11
2024-03-03T10:30:23.802Z,61.44
2024-03-03T10:32:51.889Z,59.42
2024-03-03T10:35:20.330Z,60.02
2024-03-03T10:38:03.332Z,59.52
2024-03-03T10:40:32.995Z,61.00
2024-03-03T10:43:00.604Z,59.10
2024-03-03T10:45:28.097Z,58.60
2024-03-03T10:47:55.768Z,57.86
2024-03-03T10:50:24.623Z,59.29
2024-03-03T10:52:54.418Z,58.61
2024-03-03T10:55:22.236Z,59.67
2024-03-03T10:57:52.084Z,57.77
2024-03-03T11:00:26.180Z,57.26
2024-03-03T11:02:56.223Z,60.84
2024-03-03T11:05:25.941Z,62.13
2024-03-03T11:07:54.487Z,61.66
2024-03-03T11:10:22.146Z,61.17
2024-03-03T11:12:52.832Z,62.18
2024-03-03T11:15:23.036Z,62.80
2024-03-03T11:18:01.442Z,62.79
2024-03-03T11:20:40.725Z,61.52
2024-03-03T11:23:37.047Z,61.06
2024-03-03T11:26:25.036Z,59.69
2024-03-03T11:28:59.355Z,62.92
2024-03-03T11:31:28.654Z,62.81
2024-03-03T11:33:57.673Z,60.99
2024-03-03T11:36:26.116Z,61.45
2024-03-03T11:38:57.155Z,62.68
2024-03-03T11:41:24.729Z,63.85
2024-03-03T11:43:53.191Z,64.83
2024-03-03T11:46:59.682Z,63.20
2024-03-03T11:49:27.121Z,64.15
2024-03-03T11:51:54.706Z,58.35
2024-03-03T11:54:41.124Z,58.36
2024-03-03T11:57:12.737Z,55.88
2024-03-03T11:59:47.651Z,60.61
2024-03-03T12:02:18.620Z,58.79
2024-03-03T12:04:47.879Z,58.15
2024-03-03T12:07:24.361Z,59.89
2024-03-03T12:09:55.602Z,62.07
2024-03-03T12:12:24.190Z,59.25
2024-03-03T12:14:52.996Z,62.26
2024-03-03T12:17:20.404Z,60.64
2024-03-03T12:19:48.321Z,57.62
2024-03-03T12:22:15.872Z,58.02
2024-03-03T12:24:45.014Z,59.23
2024-03-03T12:27:13.182Z,59.60
2024-03-03T12:30:04.441Z,55.77
2024-03-03T12:32:31.903Z,58.98
2024-03-03T12:34:59.211Z,59.76
2024-03-03T12:37:28.335Z,58.44
2024-03-03T12:39:58.417Z,57.35
2024-03-03T12:42:26.453Z,58.57
2024-03-03T12:44:56.303Z,58.64
2024-03-03T12:47:23.914Z,60.77
2024-03-03T12:49:51.781Z,59.96
2024-03-03T12:52:19.569Z,61.91
2024-03-03T12:54:48.836Z,60.03
2024-03-03T12:57:16.749Z,62.17
2024-03-03T12:59:44.231Z,60.81
2024-03-03T13:02:17.749Z,62.07
2024-03-03T13:04:45.221Z,62.04
2024-03-03T13:07:12.673Z,60.55
2024-03-03T13:09:41.242Z,60.56
2024-03-03T13:12:08.993Z,60.90
2024-03-03T13:14:36.894Z,60.09
2024-03-03T13:17:09.309Z,58.88
2024-03-03T13:19:53.815Z,60.46
2024-03-03T13:22:23.567Z,58.02
2024-03-03T13:25:00.765Z,58.81
2024-03-03T13:27:34.615Z,59.80
2024-03-03T13:30:08.708Z,59.40
2024-03-03T13:32:36.226Z,58.69
2024-03-03T13:35:04.060Z,58.95
2024-03-03T13:37:31.622Z,60.18
2024-03-03T13:39:59.607Z,58.94
2024-03-03T13:42:27.444Z,58.28
2024-03-03T13:44:54.893Z,60.02
2024-03-03T13:47:22.425Z,60.23
2024-03-03T13:49:50.521Z,59.77
2024-03-03T13:52:18.068Z,58.71
2024-03-03T13:54:45.635Z,59.45
2024-03-03T13:57:13.237Z,59.62
2024-03-03T13:59:41.041Z,60.59
2024-03-03T14:02:08.438Z,61.81
2024-03-03T14:04:36.520Z,59.78
2024-03-03T14:07:04.441Z,60.53
2024-03-03T14:09:32.184Z,58.86
2024-03-03T14:11:59.931Z,61.29
2024-03-03T14:14:27.360Z,61.18
2024-03-03T14:16:54.842Z,59.27
2024-03-03T14:19:22.330Z,59.70
2024-03-03T14:21:51.666Z,60.31
2024-03-03T14:24:20.171Z,62.36
2024-03-03T14:26:47.694Z,61.41
2024-03-03T14:29:15.145Z,61.28
2024-03-03T14:31:42.615Z,61.56
2024-03-03T14:34:10.045Z,61.70
2024-03-03T14:36:38.882Z,61.43
2024-03-03T14:39:07.442Z,62.58
2024-03-03T14:41:34.983Z,61.46
2024-03-03T14:44:02.470Z,60.61
2024-03-03T14:46:29.951Z,63.38
2024-03-03T14:48:57.440Z,59.92
2024-03-03T14:51:25.282Z,59.28
2024-03-03T14:53:52.752Z,61.01
2024-03-03T14:56:21.622Z,62.00
2024-03-03T14:58:49.218Z,61.10
2024-03-03T15:01:16.750Z,61.69
2024-03-03T15:03:44.132Z,60.01
2024-03-03T15:06:12.971Z,61.58
2024-03-03T15:08:40.588Z,61.00
2024-03-03T15:11:08.080Z,61.49
2024-03-03T15:13:35.548Z,61.23
2024-03-03T15:16:04.873Z,61.08
2024-03-03T15:18:32.453Z,61.73
2024-03-03T15:20:59.939Z,61.89
2024-03-03T15:23:27.381Z,61.75
2024-03-03T15:25:55.305Z,62.70
2024-03-03T15:28:23.856Z,63.01
2024-03-03T15:30:51.334Z,60.48
2024-03-03T15:33:20.773Z,62.15
2024-03-03T15:35:49.683Z,63.19
2024-03-03T15:38:17.200Z,60.46
2024-03-03T15:40:44.725Z,62.66
2024-03-03T15:43:12.636Z,62.38
2024-03-03T15:45:41.167Z,63.15
2024-03-03T15:48:08.855Z,62.21
2024-03-03T15:50:38.483Z,61.79
2024-03-03T15:53:06.312Z,63.00
2024-03-03T15:55:35.378Z,61.65
2024-03-03T15:58:04.832Z,62.51
2024-03-03T16:00:32.154Z,61.05
2024-03-03T16:03:01.558Z,60.80
2024-03-03T16:05:30.513Z,61.45
2024-03-03T16:07:58.191Z,60.57
2024-03-03T16:10:25.641Z,61.34
2024-03-03T16:12:53.164Z,61.45
2024-03-03T16:15:21.919Z,60.48
2024-03-03T16:17:49.488Z,59.83
2024-03-03T16:20:18.439Z,60.95
2024-03-03T16:22:45.847Z,61.29
2024-03-03T16:25:13.262Z,60.81
2024-03-03T16:27:40.712Z,62.18
2024-03-03T16:30:09.307Z,63.67
2024-03-03T16:32:37.325Z,62.90
2024-03-03T16:35:06.469Z,62.56
2024-03-03T16:37:34.084Z,63.09
2024-03-03T16:40:01.603Z,61.91
2024-03-03T16:42:29.461Z,61.64
2024-03-03T16:45:10.198Z,62.31
2024-03-03T16:47:38.009Z,63.78
2024-03-03T16:50:06.301Z,62.36
2024-03-03T16:52:34.971Z,61.58
2024-03-03T16:55:02.619Z,60.50
2024-03-03T16:57:30.347Z,63.66
2024-03-03T16:59:57.718Z,62.73
2024-03-03T17:02:26.044Z,63.62
2024-03-03T17:04:53.593Z,60.80
2024-03-03T17:07:21.627Z,61.81
2024-03-03T17:09:50.012Z,61.60
2024-03-03T17:12:18.485Z,62.86
2024-03-03T17:14:45.834Z,62.85
2024-03-03T17:17:13.362Z,63.22
2024-03-03T17:19:40.752Z,63.45
2024-03-03T17:22:09.910Z,64.40
2024-03-03T17:24:37.349Z,62.84
2024-03-03T17:27:05.471Z,63.34
2024-03-03T17:29:33.857Z,65.14
2024-03-03T17:32:01.382Z,64.14
2024-03-03T17:34:32.010Z,63.56
2024-03-03T17:36:59.580Z,63.01
2024-03-03T17:39:27.038Z,63.63
2024-03-03T17:41:55.333Z,62.74
2024-03-03T17:44:23.825Z,62.55
2024-03-03T17:46:51.452Z,63.62
2024-03-03T17:49:18.838Z,64.18
2024-03-03T17:51:46.489Z,63.71
2024-03-03T17:54:16.033Z,63.67
2024-03-03T17:56:45.255Z,63.82
2024-03-03T17:59:19.887Z,63.12
2024-03-03T18:01:48.284Z,61.91
2024-03-03T18:04:16.930Z,61.71
2024-03-03T18:06:44.829Z,62.38
2024-03-03T18:09:13.953Z,63.11
2024-03-03T18:11:41.461Z,63.84
2024-03-03T18:14:09.945Z,64.62
2024-03-03T18:16:37.509Z,63.81
2024-03-03T18:19:05.428Z,64.36
2024-03-03T18:21:32.918Z,63.01
2024-03-03T18:24:00.389Z,64.00
2024-03-03T18:26:27.839Z,63.13
2024-03-03T18:28:55.776Z,61.65
2024-03-03T18:31:23.633Z,62.84
2024-03-03T18:33:52.277Z,63.78
2024-03-03T18:36:21.115Z,62.95
2024-03-03T18:38:48.634Z,63.24
2024-03-03T18:41:18.215Z,62.39
2024-03-03T18:43:45.644Z,64.72
2024-03-03T18:46:19.387Z,62.96
2024-03-03T18:48:47.645Z,64.18
2024-03-03T18:51:15.931Z,63.86
2024-03-03T18:53:43.355Z,64.44
2024-03-03T18:56:10.906Z,64.51
2024-03-03T18:58:38.915Z,63.26
2024-03-03T19:01:06.481Z,64.82
2024-03-03T19:03:35.202Z,63.00
2024-03-03T19:06:02.577Z,63.96
2024-03-03T19:08:29.878Z,63.64
2024-03-03T19:10:57.770Z,63.09
2024-03-03T19:13:26.794Z,62.99
2024-03-03T19:15:54.548Z,62.51
2024-03-03T19:18:21.987Z,60.55
2024-03-03T19:20:49.814Z,61.44
2024-03-03T19:23:18.525Z,61.47
2024-03-03T19:25:46.359Z,63.32
2024-03-03T19:28:15.140Z,64.70
2024-03-03T19:30:44.241Z,63.19
2024-03-03T19:33:13.787Z,63.31
2024-03-03T19:35:43.033Z,63.28
2024-03-03T19:38:10.312Z,64.13
2024-03-03T19:40:37.726Z,62.65
2024-03-03T19:43:05.322Z,63.05
2024-03-03T19:45:32.779Z,64.46
2024-03-03T19:48:02.783Z,63.78
2024-03-03T19:50:30.163Z,64.75
2024-03-03T19:52:57.476Z,64.75
2024-03-03T19:55:26.061Z,63.32
2024-03-03T19:57:54.062Z,64.46
2024-03-03T20:00:22.777Z,63.68
2024-03-03T20:02:50.203Z,63.86
2024-03-03T20:05:17.949Z,64.36
2024-03-03T20:07:45.423Z,65.46
2024-03-03T20:10:13.367Z,66.56
2024-03-03T20:12:41.126Z,64.41
2024-03-03T20:15:13.540Z,63.75
2024-03-03T20:17:41.157Z,63.02
2024-03-03T20:20:13.144Z,63.76
2024-03-03T20:22:41.155Z,63.75
2024-03-03T20:25:10.444Z,63.22
2024-03-03T20:27:38.652Z,63.92
2024-03-03T20:30:07.608Z,65.62
2024-03-03T20:32:35.388Z,66.38
2024-03-03T20:35:04.015Z,67.25
2024-03-03T20:37:32.218Z,66.51
2024-03-03T20:39:59.657Z,64.10
2024-03-03T20:42:27.310Z,63.65
2024-03-03T20:44:54.697Z,64.34
2024-03-03T20:47:22.110Z,65.16
2024-03-03T20:49:52.138Z,65.72
2024-03-03T20:52:19.842Z,62.56
2024-03-03T20:54:47.769Z,64.14
2024-03-03T20:57:15.385Z,64.08
2024-03-03T20:59:42.806Z,65.75
2024-03-03T21:02:13.194Z,64.91
2024-03-03T21:04:44.162Z,67.38
2024-03-03T21:07:17.276Z,67.79
2024-03-03T21:09:44.822Z,65.57
2024-03-03T21:12:14.383Z,66.42
2024-03-03T21:14:47.483Z,65.75
2024-03-03T21:17:16.079Z,66.31
2024-03-03T21:19:44.674Z,64.83
2024-03-03T21:22:15.028Z,66.82
2024-03-03T21:24:45.258Z,66.74
2024-03-03T21:27:14.633Z,65.72
2024-03-03T21:29:45.515Z,68.73
2024-03-03T21:32:13.380Z,67.66
2024-03-03T21:34:42.432Z,68.47
2024-03-03T21:37:15.196Z,69.40
2024-03-03T21:39:44.547Z,67.49
2024-03-03T21:42:11.993Z,66.84
2024-03-03T21:44:45.570Z,66.86
2024-03-03T21:47:13.611Z,67.57
2024-03-03T21:49:41.608Z,66.95
2024-03-03T21:52:11.211Z,67.00
2024-03-03T21:54:40.108Z,65.62
2024-03-03T21:57:13.478Z,66.85
2024-03-03T21:59:46.027Z,67.46
2024-03-03T22:02:13.531Z,68.37
2024-03-03T22:04:43.383Z,67.89
2024-03-03T22:07:12.642Z,68.52
2024-03-03T22:09:46.594Z,68.55
2024-03-03T22:12:16.148Z,66.23
2024-03-03T22:14:43.982Z,69.04
2024-03-03T22:17:13.725Z,67.57
2024-03-03T22:19:44.835Z,69.46
2024-03-03T22:22:14.622Z,69.62
2024-03-03T22:27:24.716Z,71.14
2024-03-03T22:29:52.136Z,70.07
2024-03-03T22:32:22.340Z,68.87
2024-03-03T22:34:51.549Z,69.21
2024-03-03T22:37:19.197Z,70.65
2024-03-03T22:39:47.137Z,69.71
2024-03-03T22:42:17.262Z,66.55
2024-03-03T22:44:45.075Z,67.34
2024-03-03T22:47:17.768Z,68.64
2024-03-03T22:49:45.483Z,69.68
2024-03-03T22:52:20.345Z,67.07
2024-03-03T22:54:47.893Z,69.08
2024-03-03T22:57:15.476Z,69.64
2024-03-03T22:59:54.498Z,71.86
2024-03-03T23:02:23.843Z,70.76
2024-03-03T23:04:55.623Z,72.21
2024-03-03T23:07:24.854Z,72.65
2024-03-03T23:09:53.685Z,73.41
2024-03-03T23:12:22.876Z,73.00
2024-03-03T23:14:51.546Z,73.47
2024-03-03T23:17:19.553Z,71.58
2024-03-03T23:19:47.877Z,71.64
2024-03-03T23:22:17.001Z,73.04
2024-03-03T23:24:47.305Z,72.92
2024-03-03T23:27:17.359Z,72.10
2024-03-03T23:29:45.712Z,71.83
2024-03-03T23:32:13.075Z,71.44
2024-03-03T23:34:42.504Z,72.36
2024-03-03T23:37:11.877Z,73.10
2024-03-03T23:39:41.798Z,73.32
2024-03-03T23:42:12.544Z,72.37
2024-03-03T23:44:40.486Z,72.88
2024-03-03T23:47:10.373Z,71.82
2024-03-03T23:49:38.106Z,71.73
2024-03-03T23:52:08.564Z,71.32
2024-03-03T23:54:37.788Z,71.78
2024-03-03T23:57:08.202Z,73.41
2024-03-03T23:59:35.807Z,72.85
